Terminal Aerodrome Forecast
Issued by NWS

Home | Current Version | Previous Version | Text Only | Print | Product List | Glossary On
Versions: 1 2 3 4 5 6 7 8 9 10 11 12 13 14 15 16 17 18 19 20 21 22 23 24 25 26 27 28 29 30 31 32 33 34 35 36 37 38 39 40 41 42 43 44
000
FTUS45 KGJT 270601 AAA
TAFMTJ
TAF AMD
KMTJ 270601Z 2706/2806 35004KT P6SM VCSH BKN010 OVC040
     FM271000 VRB03KT P6SM SCT010 BKN040
     FM272000 32008KT P6SM VCSH SCT040 BKN070
     FM280200 14006KT P6SM VCSH SCT040 BKN060=

USA.gov is the U.S. government's official web portal to all federal, state and local government web resources and services.